sensor_id;sensor_type;location;lat;lon;timestamp;P1;durP1;ratioP1;P2;durP2;ratioP2
74375;SDS011;62812;55.188;61.302;2023-11-19T00:01:05;4.00;;;1.52;;
74375;SDS011;62812;55.188;61.302;2023-11-19T00:03:32;3.13;;;0.93;;
74375;SDS011;62812;55.188;61.302;2023-11-19T00:05:59;2.72;;;0.80;;
74375;SDS011;62812;55.188;61.302;2023-11-19T00:08:26;8.27;;;1.30;;
74375;SDS011;62812;55.188;61.302;2023-11-19T00:10:54;7.07;;;1.40;;
74375;SDS011;62812;55.188;61.302;2023-11-19T00:13:21;3.85;;;1.33;;
74375;SDS011;62812;55.188;61.302;2023-11-19T00:15:49;4.63;;;1.20;;
74375;SDS011;62812;55.188;61.302;2023-11-19T00:18:15;5.47;;;1.90;;
74375;SDS011;62812;55.188;61.302;2023-11-19T00:20:42;6.07;;;2.13;;
74375;SDS011;62812;55.188;61.302;2023-11-19T00:23:10;6.47;;;1.80;;
74375;SDS011;62812;55.188;61.302;2023-11-19T00:25:38;3.92;;;1.48;;
74375;SDS011;62812;55.188;61.302;2023-11-19T00:28:08;5.32;;;1.75;;
74375;SDS011;62812;55.188;61.302;2023-11-19T00:30:34;4.80;;;1.45;;
74375;SDS011;62812;55.188;61.302;2023-11-19T00:33:02;5.03;;;1.60;;
74375;SDS011;62812;55.188;61.302;2023-11-19T00:35:29;5.43;;;1.42;;
74375;SDS011;62812;55.188;61.302;2023-11-19T00:37:57;3.83;;;1.00;;
74375;SDS011;62812;55.188;61.302;2023-11-19T00:40:24;3.33;;;1.00;;
74375;SDS011;62812;55.188;61.302;2023-11-19T00:42:51;7.10;;;1.10;;
74375;SDS011;62812;55.188;61.302;2023-11-19T00:45:19;5.85;;;1.00;;
74375;SDS011;62812;55.188;61.302;2023-11-19T00:47:46;8.82;;;1.85;;
74375;SDS011;62812;55.188;61.302;2023-11-19T00:50:16;15.60;;;1.20;;
74375;SDS011;62812;55.188;61.302;2023-11-19T00:52:43;5.22;;;1.25;;
74375;SDS011;62812;55.188;61.302;2023-11-19T00:55:10;4.88;;;1.23;;
74375;SDS011;62812;55.188;61.302;2023-11-19T00:57:37;1.65;;;0.70;;
74375;SDS011;62812;55.188;61.302;2023-11-19T01:00:04;3.50;;;0.90;;
74375;SDS011;62812;55.188;61.302;2023-11-19T01:02:48;1.58;;;0.68;;
74375;SDS011;62812;55.188;61.302;2023-11-19T01:05:15;2.35;;;0.77;;
74375;SDS011;62812;55.188;61.302;2023-11-19T01:07:43;1.65;;;0.50;;
74375;SDS011;62812;55.188;61.302;2023-11-19T01:10:10;5.13;;;0.77;;
74375;SDS011;62812;55.188;61.302;2023-11-19T01:12:37;0.85;;;0.35;;
74375;SDS011;62812;55.188;61.302;2023-11-19T01:15:04;2.53;;;0.52;;
74375;SDS011;62812;55.188;61.302;2023-11-19T01:17:31;1.98;;;0.70;;
74375;SDS011;62812;55.188;61.302;2023-11-19T01:19:59;1.90;;;0.50;;
74375;SDS011;62812;55.188;61.302;2023-11-19T01:22:26;3.40;;;0.88;;
74375;SDS011;62812;55.188;61.302;2023-11-19T01:24:54;2.63;;;0.55;;
74375;SDS011;62812;55.188;61.302;2023-11-19T01:27:21;1.15;;;0.40;;
74375;SDS011;62812;55.188;61.302;2023-11-19T01:29:48;5.32;;;0.90;;
74375;SDS011;62812;55.188;61.302;2023-11-19T01:32:14;1.98;;;0.60;;
74375;SDS011;62812;55.188;61.302;2023-11-19T01:34:41;6.10;;;0.90;;
74375;SDS011;62812;55.188;61.302;2023-11-19T01:37:09;5.20;;;1.13;;
74375;SDS011;62812;55.188;61.302;2023-11-19T01:39:38;1.98;;;0.68;;
74375;SDS011;62812;55.188;61.302;2023-11-19T01:42:04;5.07;;;0.90;;
74375;SDS011;62812;55.188;61.302;2023-11-19T01:44:31;5.05;;;0.70;;
74375;SDS011;62812;55.188;61.302;2023-11-19T01:46:58;12.73;;;1.27;;
74375;SDS011;62812;55.188;61.302;2023-11-19T01:49:26;2.45;;;0.77;;
74375;SDS011;62812;55.188;61.302;2023-11-19T01:51:54;1.65;;;0.55;;
74375;SDS011;62812;55.188;61.302;2023-11-19T01:54:24;2.15;;;0.70;;
74375;SDS011;62812;55.188;61.302;2023-11-19T01:56:51;4.15;;;1.15;;
74375;SDS011;62812;55.188;61.302;2023-11-19T02:01:52;3.20;;;1.00;;
74375;SDS011;62812;55.188;61.302;2023-11-19T02:04:20;2.10;;;0.65;;
74375;SDS011;62812;55.188;61.302;2023-11-19T02:06:48;13.38;;;1.20;;
74375;SDS011;62812;55.188;61.302;2023-11-19T02:09:18;4.05;;;1.00;;
74375;SDS011;62812;55.188;61.302;2023-11-19T02:11:46;4.13;;;0.90;;
74375;SDS011;62812;55.188;61.302;2023-11-19T02:14:17;3.75;;;0.88;;
74375;SDS011;62812;55.188;61.302;2023-11-19T02:16:44;3.28;;;0.77;;
74375;SDS011;62812;55.188;61.302;2023-11-19T02:19:11;5.90;;;0.98;;
74375;SDS011;62812;55.188;61.302;2023-11-19T02:21:37;3.30;;;0.80;;
74375;SDS011;62812;55.188;61.302;2023-11-19T02:24:05;4.70;;;1.10;;
74375;SDS011;62812;55.188;61.302;2023-11-19T02:26:36;5.82;;;1.08;;
74375;SDS011;62812;55.188;61.302;2023-11-19T02:29:09;7.25;;;1.10;;
74375;SDS011;62812;55.188;61.302;2023-11-19T02:31:36;10.57;;;1.30;;
74375;SDS011;62812;55.188;61.302;2023-11-19T02:34:04;3.03;;;1.05;;
74375;SDS011;62812;55.188;61.302;2023-11-19T02:36:31;4.93;;;0.77;;
74375;SDS011;62812;55.188;61.302;2023-11-19T02:38:58;6.13;;;1.73;;
74375;SDS011;62812;55.188;61.302;2023-11-19T02:41:25;4.55;;;0.80;;
74375;SDS011;62812;55.188;61.302;2023-11-19T02:43:51;3.80;;;1.05;;
74375;SDS011;62812;55.188;61.302;2023-11-19T02:46:20;7.70;;;1.20;;
74375;SDS011;62812;55.188;61.302;2023-11-19T02:48:48;2.92;;;0.95;;
74375;SDS011;62812;55.188;61.302;2023-11-19T02:51:14;2.58;;;0.82;;
74375;SDS011;62812;55.188;61.302;2023-11-19T02:53:41;5.93;;;0.80;;
74375;SDS011;62812;55.188;61.302;2023-11-19T02:56:10;4.22;;;0.73;;
74375;SDS011;62812;55.188;61.302;2023-11-19T02:58:51;3.30;;;0.75;;
74375;SDS011;62812;55.188;61.302;2023-11-19T03:01:23;5.00;;;1.67;;
74375;SDS011;62812;55.188;61.302;2023-11-19T03:03:55;8.82;;;1.25;;
74375;SDS011;62812;55.188;61.302;2023-11-19T03:06:23;2.92;;;1.05;;
74375;SDS011;62812;55.188;61.302;2023-11-19T03:08:50;1.92;;;0.60;;
74375;SDS011;62812;55.188;61.302;2023-11-19T03:11:17;9.05;;;2.05;;
74375;SDS011;62812;55.188;61.302;2023-11-19T03:13:44;2.53;;;0.90;;
74375;SDS011;62812;55.188;61.302;2023-11-19T03:16:12;8.25;;;1.20;;
74375;SDS011;62812;55.188;61.302;2023-11-19T03:18:40;9.30;;;2.17;;
74375;SDS011;62812;55.188;61.302;2023-11-19T03:21:07;3.47;;;1.25;;
74375;SDS011;62812;55.188;61.302;2023-11-19T03:23:35;23.38;;;1.33;;
74375;SDS011;62812;55.188;61.302;2023-11-19T03:26:02;10.05;;;1.80;;
74375;SDS011;62812;55.188;61.302;2023-11-19T03:28:31;7.85;;;2.55;;
74375;SDS011;62812;55.188;61.302;2023-11-19T03:30:57;18.25;;;1.45;;
74375;SDS011;62812;55.188;61.302;2023-11-19T03:33:24;7.75;;;1.15;;
74375;SDS011;62812;55.188;61.302;2023-11-19T03:35:55;5.70;;;1.40;;
74375;SDS011;62812;55.188;61.302;2023-11-19T03:38:23;3.22;;;0.95;;
74375;SDS011;62812;55.188;61.302;2023-11-19T03:40:50;7.28;;;1.40;;
74375;SDS011;62812;55.188;61.302;2023-11-19T03:43:17;6.60;;;1.27;;
74375;SDS011;62812;55.188;61.302;2023-11-19T03:45:47;3.85;;;1.10;;
74375;SDS011;62812;55.188;61.302;2023-11-19T03:48:14;5.05;;;1.00;;
74375;SDS011;62812;55.188;61.302;2023-11-19T03:50:44;4.07;;;1.27;;
74375;SDS011;62812;55.188;61.302;2023-11-19T03:53:12;7.60;;;1.50;;
74375;SDS011;62812;55.188;61.302;2023-11-19T03:55:39;8.48;;;2.17;;
74375;SDS011;62812;55.188;61.302;2023-11-19T03:58:06;4.35;;;0.93;;
74375;SDS011;62812;55.188;61.302;2023-11-19T04:00:37;4.63;;;1.13;;
74375;SDS011;62812;55.188;61.302;2023-11-19T04:03:36;3.60;;;0.90;;
74375;SDS011;62812;55.188;61.302;2023-11-19T04:06:15;2.78;;;0.82;;
74375;SDS011;62812;55.188;61.302;2023-11-19T04:08:45;3.22;;;1.17;;
74375;SDS011;62812;55.188;61.302;2023-11-19T04:11:12;2.60;;;1.10;;
74375;SDS011;62812;55.188;61.302;2023-11-19T04:13:56;5.72;;;1.02;;
74375;SDS011;62812;55.188;61.302;2023-11-19T04:16:27;13.13;;;2.20;;
74375;SDS011;62812;55.188;61.302;2023-11-19T04:19:03;6.10;;;1.38;;
74375;SDS011;62812;55.188;61.302;2023-11-19T04:21:37;4.78;;;0.90;;
74375;SDS011;62812;55.188;61.302;2023-11-19T04:24:09;5.10;;;1.27;;
74375;SDS011;62812;55.188;61.302;2023-11-19T04:29:06;5.55;;;1.00;;
74375;SDS011;62812;55.188;61.302;2023-11-19T04:31:37;4.47;;;1.33;;
74375;SDS011;62812;55.188;61.302;2023-11-19T04:34:05;12.65;;;2.20;;
74375;SDS011;62812;55.188;61.302;2023-11-19T04:40:57;3.75;;;0.98;;
74375;SDS011;62812;55.188;61.302;2023-11-19T04:43:24;8.52;;;1.25;;
74375;SDS011;62812;55.188;61.302;2023-11-19T04:45:50;3.63;;;1.00;;
74375;SDS011;62812;55.188;61.302;2023-11-19T04:48:22;4.03;;;0.82;;
74375;SDS011;62812;55.188;61.302;2023-11-19T04:50:49;4.40;;;1.23;;
74375;SDS011;62812;55.188;61.302;2023-11-19T04:53:22;4.28;;;1.23;;
74375;SDS011;62812;55.188;61.302;2023-11-19T04:55:48;6.40;;;1.20;;
74375;SDS011;62812;55.188;61.302;2023-11-19T04:58:18;4.75;;;1.05;;
74375;SDS011;62812;55.188;61.302;2023-11-19T05:03:45;9.55;;;1.33;;
74375;SDS011;62812;55.188;61.302;2023-11-19T05:09:53;9.35;;;1.08;;
74375;SDS011;62812;55.188;61.302;2023-11-19T05:12:21;4.15;;;1.35;;
74375;SDS011;62812;55.188;61.302;2023-11-19T05:14:52;7.45;;;1.40;;
74375;SDS011;62812;55.188;61.302;2023-11-19T05:17:19;5.10;;;1.00;;
74375;SDS011;62812;55.188;61.302;2023-11-19T05:19:48;4.10;;;1.15;;
74375;SDS011;62812;55.188;61.302;2023-11-19T05:22:15;3.35;;;1.20;;
74375;SDS011;62812;55.188;61.302;2023-11-19T05:24:46;8.85;;;1.42;;
74375;SDS011;62812;55.188;61.302;2023-11-19T05:27:14;5.10;;;1.70;;
74375;SDS011;62812;55.188;61.302;2023-11-19T05:29:40;3.60;;;1.25;;
74375;SDS011;62812;55.188;61.302;2023-11-19T05:32:13;11.10;;;1.48;;
74375;SDS011;62812;55.188;61.302;2023-11-19T05:34:39;6.88;;;1.45;;
74375;SDS011;62812;55.188;61.302;2023-11-19T05:37:06;5.72;;;1.40;;
74375;SDS011;62812;55.188;61.302;2023-11-19T05:39:36;7.43;;;1.30;;
74375;SDS011;62812;55.188;61.302;2023-11-19T05:42:20;6.00;;;0.98;;
74375;SDS011;62812;55.188;61.302;2023-11-19T05:44:49;9.93;;;1.40;;
74375;SDS011;62812;55.188;61.302;2023-11-19T05:47:20;5.82;;;1.60;;
74375;SDS011;62812;55.188;61.302;2023-11-19T05:52:40;5.28;;;1.67;;
74375;SDS011;62812;55.188;61.302;2023-11-19T05:55:07;10.48;;;2.15;;
74375;SDS011;62812;55.188;61.302;2023-11-19T05:57:35;3.10;;;1.00;;
74375;SDS011;62812;55.188;61.302;2023-11-19T06:00:02;10.05;;;1.40;;
74375;SDS011;62812;55.188;61.302;2023-11-19T06:02:40;5.75;;;1.65;;
74375;SDS011;62812;55.188;61.302;2023-11-19T06:05:07;4.20;;;1.10;;
74375;SDS011;62812;55.188;61.302;2023-11-19T06:07:37;5.32;;;1.25;;
74375;SDS011;62812;55.188;61.302;2023-11-19T06:10:08;9.80;;;1.33;;
74375;SDS011;62812;55.188;61.302;2023-11-19T06:12:36;9.30;;;1.77;;
74375;SDS011;62812;55.188;61.302;2023-11-19T06:15:08;4.90;;;1.33;;
74375;SDS011;62812;55.188;61.302;2023-11-19T06:17:45;3.13;;;1.02;;
74375;SDS011;62812;55.188;61.302;2023-11-19T06:20:14;7.30;;;1.52;;
74375;SDS011;62812;55.188;61.302;2023-11-19T06:22:43;4.65;;;1.77;;
74375;SDS011;62812;55.188;61.302;2023-11-19T06:25:11;5.30;;;1.33;;
74375;SDS011;62812;55.188;61.302;2023-11-19T06:27:55;8.85;;;1.30;;
74375;SDS011;62812;55.188;61.302;2023-11-19T06:30:45;1.70;;;0.82;;
74375;SDS011;62812;55.188;61.302;2023-11-19T06:33:13;1.95;;;0.60;;
74375;SDS011;62812;55.188;61.302;2023-11-19T06:35:41;2.67;;;0.60;;
74375;SDS011;62812;55.188;61.302;2023-11-19T06:38:17;1.83;;;0.55;;
74375;SDS011;62812;55.188;61.302;2023-11-19T06:40:52;2.88;;;0.68;;
74375;SDS011;62812;55.188;61.302;2023-11-19T06:43:22;9.97;;;1.90;;
74375;SDS011;62812;55.188;61.302;2023-11-19T06:45:53;3.58;;;1.20;;
74375;SDS011;62812;55.188;61.302;2023-11-19T06:48:24;3.53;;;1.20;;
74375;SDS011;62812;55.188;61.302;2023-11-19T06:50:52;3.03;;;0.95;;
74375;SDS011;62812;55.188;61.302;2023-11-19T06:53:22;3.38;;;0.73;;
74375;SDS011;62812;55.188;61.302;2023-11-19T06:55:49;5.47;;;0.80;;
74375;SDS011;62812;55.188;61.302;2023-11-19T06:58:17;3.45;;;1.02;;
74375;SDS011;62812;55.188;61.302;2023-11-19T07:00:45;2.97;;;0.82;;
74375;SDS011;62812;55.188;61.302;2023-11-19T07:03:15;4.18;;;1.08;;
74375;SDS011;62812;55.188;61.302;2023-11-19T07:05:48;2.53;;;0.80;;
74375;SDS011;62812;55.188;61.302;2023-11-19T07:08:16;2.13;;;0.70;;
74375;SDS011;62812;55.188;61.302;2023-11-19T07:10:43;2.83;;;0.90;;
74375;SDS011;62812;55.188;61.302;2023-11-19T07:15:40;2.70;;;0.85;;
74375;SDS011;62812;55.188;61.302;2023-11-19T07:18:06;6.13;;;0.82;;
74375;SDS011;62812;55.188;61.302;2023-11-19T07:20:33;10.27;;;1.10;;
74375;SDS011;62812;55.188;61.302;2023-11-19T07:23:01;3.92;;;1.15;;
74375;SDS011;62812;55.188;61.302;2023-11-19T07:25:29;4.07;;;0.85;;
74375;SDS011;62812;55.188;61.302;2023-11-19T07:27:58;3.10;;;1.00;;
74375;SDS011;62812;55.188;61.302;2023-11-19T07:30:26;4.90;;;0.98;;
74375;SDS011;62812;55.188;61.302;2023-11-19T07:32:54;4.60;;;0.90;;
74375;SDS011;62812;55.188;61.302;2023-11-19T07:35:24;3.63;;;0.95;;
74375;SDS011;62812;55.188;61.302;2023-11-19T07:37:51;5.93;;;1.48;;
74375;SDS011;62812;55.188;61.302;2023-11-19T07:40:20;1.98;;;0.68;;
74375;SDS011;62812;55.188;61.302;2023-11-19T07:42:47;3.20;;;0.73;;
74375;SDS011;62812;55.188;61.302;2023-11-19T07:45:17;10.30;;;1.08;;
74375;SDS011;62812;55.188;61.302;2023-11-19T07:47:44;3.95;;;0.65;;
74375;SDS011;62812;55.188;61.302;2023-11-19T07:50:11;4.55;;;1.27;;
74375;SDS011;62812;55.188;61.302;2023-11-19T07:52:48;2.80;;;0.80;;
74375;SDS011;62812;55.188;61.302;2023-11-19T07:55:21;2.92;;;1.02;;
74375;SDS011;62812;55.188;61.302;2023-11-19T07:57:48;2.00;;;0.63;;
74375;SDS011;62812;55.188;61.302;2023-11-19T08:00:15;9.32;;;1.00;;
74375;SDS011;62812;55.188;61.302;2023-11-19T08:02:42;5.60;;;1.10;;
74375;SDS011;62812;55.188;61.302;2023-11-19T08:05:09;7.25;;;1.33;;
74375;SDS011;62812;55.188;61.302;2023-11-19T08:07:35;3.65;;;1.13;;
74375;SDS011;62812;55.188;61.302;2023-11-19T08:10:02;2.70;;;0.77;;
74375;SDS011;62812;55.188;61.302;2023-11-19T08:12:32;5.93;;;1.30;;
74375;SDS011;62812;55.188;61.302;2023-11-19T08:15:01;5.90;;;0.70;;
74375;SDS011;62812;55.188;61.302;2023-11-19T08:17:28;3.83;;;0.60;;
74375;SDS011;62812;55.188;61.302;2023-11-19T08:19:54;12.15;;;1.25;;
74375;SDS011;62812;55.188;61.302;2023-11-19T08:22:21;5.32;;;1.63;;
74375;SDS011;62812;55.188;61.302;2023-11-19T08:24:48;4.13;;;1.55;;
74375;SDS011;62812;55.188;61.302;2023-11-19T08:27:15;6.07;;;1.45;;
74375;SDS011;62812;55.188;61.302;2023-11-19T08:29:43;5.60;;;1.25;;
74375;SDS011;62812;55.188;61.302;2023-11-19T08:32:10;4.80;;;1.48;;
74375;SDS011;62812;55.188;61.302;2023-11-19T08:34:36;3.22;;;1.13;;
74375;SDS011;62812;55.188;61.302;2023-11-19T08:37:03;4.13;;;1.42;;
74375;SDS011;62812;55.188;61.302;2023-11-19T08:39:30;5.97;;;1.52;;
74375;SDS011;62812;55.188;61.302;2023-11-19T08:41:56;3.30;;;1.10;;
74375;SDS011;62812;55.188;61.302;2023-11-19T08:44:23;4.72;;;1.50;;
74375;SDS011;62812;55.188;61.302;2023-11-19T08:46:52;2.75;;;1.00;;
74375;SDS011;62812;55.188;61.302;2023-11-19T08:49:19;4.72;;;1.40;;
74375;SDS011;62812;55.188;61.302;2023-11-19T08:51:51;7.82;;;1.58;;
74375;SDS011;62812;55.188;61.302;2023-11-19T08:54:18;7.88;;;2.33;;
74375;SDS011;62812;55.188;61.302;2023-11-19T08:56:47;6.55;;;1.35;;
74375;SDS011;62812;55.188;61.302;2023-11-19T08:59:14;4.18;;;0.98;;
74375;SDS011;62812;55.188;61.302;2023-11-19T09:01:44;3.70;;;1.48;;
74375;SDS011;62812;55.188;61.302;2023-11-19T09:04:18;5.18;;;1.25;;
74375;SDS011;62812;55.188;61.302;2023-11-19T09:06:48;19.63;;;2.33;;
74375;SDS011;62812;55.188;61.302;2023-11-19T09:09:15;6.50;;;2.00;;
74375;SDS011;62812;55.188;61.302;2023-11-19T09:11:41;4.65;;;1.50;;
74375;SDS011;62812;55.188;61.302;2023-11-19T09:14:11;10.15;;;1.60;;
74375;SDS011;62812;55.188;61.302;2023-11-19T09:16:40;17.30;;;2.08;;
74375;SDS011;62812;55.188;61.302;2023-11-19T09:19:11;6.93;;;1.42;;
74375;SDS011;62812;55.188;61.302;2023-11-19T09:24:34;3.83;;;1.30;;
74375;SDS011;62812;55.188;61.302;2023-11-19T09:27:02;3.90;;;1.10;;
74375;SDS011;62812;55.188;61.302;2023-11-19T09:29:31;7.72;;;1.00;;
74375;SDS011;62812;55.188;61.302;2023-11-19T09:31:59;14.18;;;1.38;;
74375;SDS011;62812;55.188;61.302;2023-11-19T09:34:25;11.13;;;1.88;;
74375;SDS011;62812;55.188;61.302;2023-11-19T09:36:52;12.20;;;1.60;;
74375;SDS011;62812;55.188;61.302;2023-11-19T09:39:20;11.70;;;1.10;;
74375;SDS011;62812;55.188;61.302;2023-11-19T09:41:47;8.02;;;1.60;;
74375;SDS011;62812;55.188;61.302;2023-11-19T09:44:15;7.50;;;1.40;;
74375;SDS011;62812;55.188;61.302;2023-11-19T09:46:44;2.92;;;0.73;;
74375;SDS011;62812;55.188;61.302;2023-11-19T09:49:11;10.00;;;0.85;;
74375;SDS011;62812;55.188;61.302;2023-11-19T09:51:45;8.23;;;1.02;;
74375;SDS011;62812;55.188;61.302;2023-11-19T09:54:12;21.92;;;2.13;;
74375;SDS011;62812;55.188;61.302;2023-11-19T09:56:41;3.70;;;1.20;;
74375;SDS011;62812;55.188;61.302;2023-11-19T09:59:08;4.80;;;1.70;;
74375;SDS011;62812;55.188;61.302;2023-11-19T10:01:37;3.42;;;1.02;;
74375;SDS011;62812;55.188;61.302;2023-11-19T10:04:04;4.47;;;1.20;;
74375;SDS011;62812;55.188;61.302;2023-11-19T10:06:33;2.97;;;1.20;;
74375;SDS011;62812;55.188;61.302;2023-11-19T10:09:00;6.53;;;1.42;;
74375;SDS011;62812;55.188;61.302;2023-11-19T10:11:28;3.85;;;0.73;;
74375;SDS011;62812;55.188;61.302;2023-11-19T10:13:57;6.75;;;1.35;;
74375;SDS011;62812;55.188;61.302;2023-11-19T10:16:28;24.90;;;2.00;;
74375;SDS011;62812;55.188;61.302;2023-11-19T10:21:22;3.53;;;1.08;;
74375;SDS011;62812;55.188;61.302;2023-11-19T10:23:49;3.67;;;1.23;;
74375;SDS011;62812;55.188;61.302;2023-11-19T10:26:17;4.50;;;1.25;;
74375;SDS011;62812;55.188;61.302;2023-11-19T10:31:23;3.92;;;1.30;;
74375;SDS011;62812;55.188;61.302;2023-11-19T10:33:52;6.22;;;1.50;;
74375;SDS011;62812;55.188;61.302;2023-11-19T10:36:18;13.52;;;1.90;;
74375;SDS011;62812;55.188;61.302;2023-11-19T10:38:51;6.18;;;1.70;;
74375;SDS011;62812;55.188;61.302;2023-11-19T10:41:26;38.35;;;2.53;;
74375;SDS011;62812;55.188;61.302;2023-11-19T10:47:29;8.77;;;1.45;;
74375;SDS011;62812;55.188;61.302;2023-11-19T10:50:04;33.70;;;3.40;;
74375;SDS011;62812;55.188;61.302;2023-11-19T10:52:34;15.32;;;2.15;;
74375;SDS011;62812;55.188;61.302;2023-11-19T10:58:53;13.10;;;1.75;;
74375;SDS011;62812;55.188;61.302;2023-11-19T11:01:23;17.50;;;1.95;;
74375;SDS011;62812;55.188;61.302;2023-11-19T11:03:53;13.50;;;2.10;;
74375;SDS011;62812;55.188;61.302;2023-11-19T11:06:24;8.35;;;1.40;;
74375;SDS011;62812;55.188;61.302;2023-11-19T11:08:54;15.63;;;1.70;;
74375;SDS011;62812;55.188;61.302;2023-11-19T11:14:34;9.65;;;1.83;;
74375;SDS011;62812;55.188;61.302;2023-11-19T11:17:07;6.28;;;1.30;;
74375;SDS011;62812;55.188;61.302;2023-11-19T11:19:37;9.43;;;1.60;;
74375;SDS011;62812;55.188;61.302;2023-11-19T11:22:05;17.27;;;2.30;;
74375;SDS011;62812;55.188;61.302;2023-11-19T11:24:37;7.78;;;1.60;;
74375;SDS011;62812;55.188;61.302;2023-11-19T11:27:40;22.85;;;2.33;;
74375;SDS011;62812;55.188;61.302;2023-11-19T11:30:23;5.80;;;1.38;;
74375;SDS011;62812;55.188;61.302;2023-11-19T11:33:06;11.07;;;1.77;;
74375;SDS011;62812;55.188;61.302;2023-11-19T11:35:53;3.53;;;1.30;;
74375;SDS011;62812;55.188;61.302;2023-11-19T11:38:29;3.35;;;1.63;;
74375;SDS011;62812;55.188;61.302;2023-11-19T11:41:40;11.82;;;1.17;;
74375;SDS011;62812;55.188;61.302;2023-11-19T11:44:08;12.80;;;1.95;;
74375;SDS011;62812;55.188;61.302;2023-11-19T11:46:53;9.25;;;1.55;;
74375;SDS011;62812;55.188;61.302;2023-11-19T11:49:24;23.70;;;1.70;;
74375;SDS011;62812;55.188;61.302;2023-11-19T11:52:03;10.38;;;1.83;;
74375;SDS011;62812;55.188;61.302;2023-11-19T11:54:31;9.13;;;1.50;;
74375;SDS011;62812;55.188;61.302;2023-11-19T11:57:02;6.32;;;2.25;;
74375;SDS011;62812;55.188;61.302;2023-11-19T11:59:45;8.05;;;1.50;;
74375;SDS011;62812;55.188;61.302;2023-11-19T12:02:14;18.38;;;3.25;;
74375;SDS011;62812;55.188;61.302;2023-11-19T12:04:43;13.73;;;2.63;;
74375;SDS011;62812;55.188;61.302;2023-11-19T12:07:16;19.08;;;3.95;;
74375;SDS011;62812;55.188;61.302;2023-11-19T12:09:46;6.20;;;1.73;;
74375;SDS011;62812;55.188;61.302;2023-11-19T12:12:18;18.70;;;2.22;;
74375;SDS011;62812;55.188;61.302;2023-11-19T12:15:07;12.45;;;2.75;;
74375;SDS011;62812;55.188;61.302;2023-11-19T12:17:43;10.43;;;1.83;;
74375;SDS011;62812;55.188;61.302;2023-11-19T12:20:17;25.40;;;2.80;;
74375;SDS011;62812;55.188;61.302;2023-11-19T12:22:46;12.55;;;2.47;;
74375;SDS011;62812;55.188;61.302;2023-11-19T12:25:15;11.63;;;2.63;;
74375;SDS011;62812;55.188;61.302;2023-11-19T12:27:52;24.02;;;3.17;;
74375;SDS011;62812;55.188;61.302;2023-11-19T12:30:21;7.03;;;2.30;;
74375;SDS011;62812;55.188;61.302;2023-11-19T12:38:17;2.95;;;0.95;;
74375;SDS011;62812;55.188;61.302;2023-11-19T12:40:46;10.05;;;2.60;;
74375;SDS011;62812;55.188;61.302;2023-11-19T12:43:28;10.10;;;1.85;;
74375;SDS011;62812;55.188;61.302;2023-11-19T12:45:56;7.32;;;1.92;;
74375;SDS011;62812;55.188;61.302;2023-11-19T12:48:25;23.35;;;2.58;;
74375;SDS011;62812;55.188;61.302;2023-11-19T12:50:52;14.63;;;2.42;;
74375;SDS011;62812;55.188;61.302;2023-11-19T12:53:22;7.70;;;2.00;;
74375;SDS011;62812;55.188;61.302;2023-11-19T12:56:15;18.52;;;4.10;;
74375;SDS011;62812;55.188;61.302;2023-11-19T12:58:42;14.73;;;3.20;;
74375;SDS011;62812;55.188;61.302;2023-11-19T13:01:15;9.48;;;2.70;;
74375;SDS011;62812;55.188;61.302;2023-11-19T13:03:45;14.50;;;3.72;;
74375;SDS011;62812;55.188;61.302;2023-11-19T13:06:15;13.05;;;2.92;;
74375;SDS011;62812;55.188;61.302;2023-11-19T13:08:44;21.90;;;4.30;;
74375;SDS011;62812;55.188;61.302;2023-11-19T13:11:14;16.13;;;4.30;;
74375;SDS011;62812;55.188;61.302;2023-11-19T13:13:54;13.05;;;2.70;;
74375;SDS011;62812;55.188;61.302;2023-11-19T13:16:23;8.80;;;2.67;;
74375;SDS011;62812;55.188;61.302;2023-11-19T13:18:53;11.57;;;3.25;;
74375;SDS011;62812;55.188;61.302;2023-11-19T13:21:20;5.88;;;2.50;;
74375;SDS011;62812;55.188;61.302;2023-11-19T13:23:48;16.65;;;2.42;;
74375;SDS011;62812;55.188;61.302;2023-11-19T13:26:17;13.07;;;3.17;;
74375;SDS011;62812;55.188;61.302;2023-11-19T13:28:44;19.67;;;3.25;;
74375;SDS011;62812;55.188;61.302;2023-11-19T13:31:10;19.23;;;4.13;;
74375;SDS011;62812;55.188;61.302;2023-11-19T13:33:37;9.50;;;3.42;;
74375;SDS011;62812;55.188;61.302;2023-11-19T13:36:09;23.65;;;4.80;;
74375;SDS011;62812;55.188;61.302;2023-11-19T13:38:39;8.77;;;2.50;;
74375;SDS011;62812;55.188;61.302;2023-11-19T13:46:05;5.47;;;2.00;;
74375;SDS011;62812;55.188;61.302;2023-11-19T13:48:58;7.32;;;1.80;;
74375;SDS011;62812;55.188;61.302;2023-11-19T13:55:55;9.50;;;1.95;;
74375;SDS011;62812;55.188;61.302;2023-11-19T13:59:10;9.82;;;1.85;;
74375;SDS011;62812;55.188;61.302;2023-11-19T14:04:55;9.52;;;1.90;;
74375;SDS011;62812;55.188;61.302;2023-11-19T14:07:27;6.70;;;1.88;;
74375;SDS011;62812;55.188;61.302;2023-11-19T14:10:15;4.15;;;1.63;;
74375;SDS011;62812;55.188;61.302;2023-11-19T14:12:44;6.20;;;2.28;;
74375;SDS011;62812;55.188;61.302;2023-11-19T14:15:11;8.75;;;2.15;;
74375;SDS011;62812;55.188;61.302;2023-11-19T14:17:44;18.60;;;3.67;;
74375;SDS011;62812;55.188;61.302;2023-11-19T14:20:11;14.65;;;2.92;;
74375;SDS011;62812;55.188;61.302;2023-11-19T14:22:46;9.57;;;2.75;;
74375;SDS011;62812;55.188;61.302;2023-11-19T14:25:15;9.07;;;3.00;;
74375;SDS011;62812;55.188;61.302;2023-11-19T14:27:45;5.68;;;2.28;;
74375;SDS011;62812;55.188;61.302;2023-11-19T14:30:13;12.20;;;2.35;;
74375;SDS011;62812;55.188;61.302;2023-11-19T14:32:40;6.32;;;2.42;;
74375;SDS011;62812;55.188;61.302;2023-11-19T14:35:14;8.07;;;2.33;;
74375;SDS011;62812;55.188;61.302;2023-11-19T14:37:41;12.75;;;2.78;;
74375;SDS011;62812;55.188;61.302;2023-11-19T14:40:08;15.30;;;2.88;;
74375;SDS011;62812;55.188;61.302;2023-11-19T14:42:37;10.25;;;3.05;;
74375;SDS011;62812;55.188;61.302;2023-11-19T14:45:07;6.60;;;1.73;;
74375;SDS011;62812;55.188;61.302;2023-11-19T14:47:41;4.13;;;1.30;;
74375;SDS011;62812;55.188;61.302;2023-11-19T14:50:10;5.57;;;1.77;;
74375;SDS011;62812;55.188;61.302;2023-11-19T14:52:38;10.82;;;2.28;;
74375;SDS011;62812;55.188;61.302;2023-11-19T14:55:05;5.28;;;1.30;;
74375;SDS011;62812;55.188;61.302;2023-11-19T14:57:36;6.38;;;2.00;;
74375;SDS011;62812;55.188;61.302;2023-11-19T15:00:05;7.10;;;2.00;;
74375;SDS011;62812;55.188;61.302;2023-11-19T15:02:42;18.30;;;1.65;;
74375;SDS011;62812;55.188;61.302;2023-11-19T15:05:09;14.10;;;1.35;;
74375;SDS011;62812;55.188;61.302;2023-11-19T15:07:39;11.20;;;1.75;;
74375;SDS011;62812;55.188;61.302;2023-11-19T15:10:10;5.45;;;1.45;;
74375;SDS011;62812;55.188;61.302;2023-11-19T15:12:48;14.10;;;2.33;;
74375;SDS011;62812;55.188;61.302;2023-11-19T15:15:14;5.32;;;1.58;;
74375;SDS011;62812;55.188;61.302;2023-11-19T15:17:48;6.60;;;2.17;;
74375;SDS011;62812;55.188;61.302;2023-11-19T15:20:33;4.30;;;1.58;;
74375;SDS011;62812;55.188;61.302;2023-11-19T15:23:01;7.40;;;1.98;;
74375;SDS011;62812;55.188;61.302;2023-11-19T15:29:18;12.55;;;1.77;;
74375;SDS011;62812;55.188;61.302;2023-11-19T15:31:45;6.53;;;1.85;;
74375;SDS011;62812;55.188;61.302;2023-11-19T15:34:23;3.70;;;1.20;;
74375;SDS011;62812;55.188;61.302;2023-11-19T15:36:53;5.18;;;2.35;;
74375;SDS011;62812;55.188;61.302;2023-11-19T15:50:42;9.50;;;1.80;;
74375;SDS011;62812;55.188;61.302;2023-11-19T15:56:44;5.35;;;1.95;;
74375;SDS011;62812;55.188;61.302;2023-11-19T15:59:11;7.75;;;1.95;;
74375;SDS011;62812;55.188;61.302;2023-11-19T16:01:38;7.38;;;2.03;;
74375;SDS011;62812;55.188;61.302;2023-11-19T16:06:54;9.10;;;1.92;;